Time;durP1;ratioP1;P1;durP2;ratioP2;P2;SDS_P1;SDS_P2;PMS_P1;PMS_P2;Temp;Humidity;BMP_temperature;BMP_pressure;BME280_temperature;BME280_humidity;BME280_pressure;Samples;Min_cycle;Max_cycle;Signal;HPM_P1;HPM_P2
2022/10/21 00:02:46;;;;;;;1.90;1.70;;;;;;;17.23;100.00;100579.94;20866176;28;21767;-75
2022/10/21 00:12:47;;;;;;;1.60;1.50;;;;;;;17.22;100.00;100583.63;20888962;28;20128;-75
2022/10/21 00:22:49;;;;;;;2.03;1.83;;;;;;;17.12;100.00;100562.09;20883525;28;20521;-75
2022/10/21 00:32:50;;;;;;;1.67;1.58;;;;;;;17.23;100.00;100579.94;20883121;28;20520;-76
2022/10/21 00:42:51;;;;;;;1.75;1.60;;;;;;;17.04;100.00;100532.34;20886615;28;20076;-77
2022/10/21 00:52:55;;;;;;;1.83;1.50;;;;;;;16.93;100.00;100493.81;20880921;28;20061;-75
2022/10/21 01:02:56;;;;;;;1.50;1.40;;;;;;;17.22;100.00;100527.13;20879608;28;20072;-75
2022/10/21 01:13:17;;;;;;;2.25;1.55;;;;;;;17.22;100.00;100519.06;20877344;28;20041;-75
2022/10/21 01:23:59;;;;;;;1.50;1.40;;;;;;;17.14;100.00;100498.25;20878464;28;20051;-75
2022/10/21 01:34:52;;;;;;;2.22;1.65;;;;;;;17.07;100.00;100479.16;20876832;28;20060;-75
2022/10/21 01:45:13;;;;;;;1.42;1.25;;;;;;;17.22;100.00;100476.84;20868230;28;20052;-75
2022/10/21 01:55:18;;;;;;;1.75;1.42;;;;;;;17.21;100.00;100491.31;20876284;28;20055;-76
2022/10/21 02:05:28;;;;;;;1.57;1.43;;;;;;;16.86;100.00;100438.91;20874111;28;20063;-75
2022/10/21 02:15:31;;;;;;;1.50;1.40;;;;;;;16.95;100.00;100469.47;20875253;28;20413;-75
2022/10/21 02:25:35;;;;;;;2.03;1.55;;;;;;;17.19;100.00;100487.91;20880723;28;20111;-75
2022/10/21 02:35:51;;;;;;;1.70;1.60;;;;;;;17.20;100.00;100494.16;20890038;28;20413;-76
2022/10/21 02:46:13;;;;;;;1.63;1.50;;;;;;;17.21;100.00;100471.63;20890241;28;20060;-76
2022/10/21 02:56:14;;;;;;;1.48;1.38;;;;;;;17.10;100.00;100445.72;20880728;28;20051;-75
2022/10/21 03:06:16;;;;;;;1.63;1.50;;;;;;;17.20;100.00;100433.13;20889190;28;20053;-76
2022/10/21 03:16:17;;;;;;;1.92;1.63;;;;;;;17.21;100.00;100418.66;20888791;28;20131;-76
2022/10/21 03:26:24;;;;;;;1.65;1.50;;;;;;;17.19;100.00;100412.59;20870604;28;20045;-75
2022/10/21 03:36:25;;;;;;;1.50;1.40;;;;;;;17.10;100.00;100397.31;20885005;28;20549;-75
2022/10/21 03:46:27;;;;;;;1.52;1.30;;;;;;;17.19;100.00;100407.22;20883874;28;20073;-76
2022/10/21 03:56:28;;;;;;;1.40;1.30;;;;;;;17.20;100.00;100413.44;20885967;28;20045;-76
2022/10/21 04:06:30;;;;;;;1.48;1.33;;;;;;;17.19;100.00;100409.91;20881838;28;20044;-76
2022/10/21 04:16:32;;;;;;;1.48;1.30;;;;;;;17.18;100.00;100408.19;20882357;28;20056;-75
2022/10/21 04:26:34;;;;;;;1.48;1.35;;;;;;;17.18;100.00;100386.69;20883094;28;20057;-76
2022/10/21 04:36:35;;;;;;;2.03;1.67;;;;;;;17.18;100.00;100385.84;20863946;28;20132;-75
2022/10/21 04:46:36;;;;;;;1.40;1.30;;;;;;;17.18;100.00;100384.00;20875205;28;20052;-76
2022/10/21 04:56:41;;;;;;;1.60;1.40;;;;;;;17.18;100.00;100370.53;20879559;28;20140;-80
2022/10/21 05:06:43;;;;;;;1.98;1.80;;;;;;;16.98;100.00;100328.56;20877042;28;20053;-75
2022/10/21 05:16:44;;;;;;;2.83;2.35;;;;;;;17.33;100.00;100359.34;20868032;28;20072;-76
2022/10/21 05:26:46;;;;;;;4.28;2.45;;;;;;;17.43;100.00;100367.38;20857033;28;20065;-76
2022/10/21 05:36:48;;;;;;;3.13;2.30;;;;;;;17.27;100.00;100333.03;20871124;28;20152;-76
2022/10/21 05:46:49;;;;;;;4.75;2.35;;;;;;;17.50;100.00;100363.94;20866277;28;20045;-76
2022/10/21 05:56:54;;;;;;;4.57;2.40;;;;;;;17.22;100.00;100320.84;20865260;28;20059;-76
2022/10/21 06:06:56;;;;;;;4.20;2.42;;;;;;;17.56;100.00;100364.34;20856901;28;20068;-75
2022/10/21 06:17:03;;;;;;;3.13;2.10;;;;;;;17.50;100.00;100366.66;20772522;28;20636;-75
2022/10/21 06:27:05;;;;;;;3.25;2.55;;;;;;;17.19;100.00;100309.53;20777240;28;20441;-76
2022/10/21 06:37:07;;;;;;;3.45;2.42;;;;;;;17.58;100.00;100379.38;20785078;28;20521;-75
2022/10/21 06:47:08;;;;;;;4.05;2.63;;;;;;;17.61;100.00;100379.09;20773222;28;20054;-74
2022/10/21 06:57:09;;;;;;;5.38;3.00;;;;;;;17.64;100.00;100380.63;20779584;28;20058;-74
2022/10/21 07:07:11;;;;;;;3.25;2.17;;;;;;;17.68;100.00;100368.59;20779088;28;20050;-75
2022/10/21 07:17:13;;;;;;;4.03;2.67;;;;;;;17.73;100.00;100379.75;20793494;28;20068;-75
2022/10/21 07:27:14;;;;;;;4.25;2.60;;;;;;;17.76;100.00;100381.28;20859861;28;20047;-74
2022/10/21 07:37:16;;;;;;;3.83;2.47;;;;;;;17.74;100.00;100378.75;20857351;28;20072;-75
2022/10/21 07:47:18;;;;;;;2.63;2.30;;;;;;;17.73;100.00;100381.59;20861038;28;20579;-78
2022/10/21 07:57:19;;;;;;;4.07;3.08;;;;;;;17.81;100.00;100390.63;20850922;28;20056;-73
2022/10/21 08:07:21;;;;;;;2.65;2.28;;;;;;;17.85;100.00;100404.63;20852896;28;20059;-75
2022/10/21 08:17:22;;;;;;;9.63;3.45;;;;;;;17.87;100.00;100382.94;20851253;28;20059;-74
2022/10/21 08:27:24;;;;;;;3.72;2.33;;;;;;;17.96;100.00;100395.50;20853112;28;20052;-75
2022/10/21 08:37:25;;;;;;;4.15;3.03;;;;;;;18.00;100.00;100386.13;20838070;28;20124;-75
2022/10/21 08:47:44;;;;;;;2.97;2.38;;;;;;;17.91;100.00;100378.94;20858500;28;20053;-75
2022/10/21 08:57:47;;;;;;;2.60;2.38;;;;;;;18.01;100.00;100390.56;20870986;28;20045;-75
2022/10/21 09:08:09;;;;;;;3.22;2.35;;;;;;;17.95;100.00;100402.75;20851791;28;20187;-74
2022/10/21 09:18:28;;;;;;;3.95;2.53;;;;;;;17.90;100.00;100409.56;20861189;28;20053;-74
2022/10/21 09:28:30;;;;;;;4.07;2.72;;;;;;;17.82;100.00;100397.69;20854875;28;20131;-73
2022/10/21 09:38:42;;;;;;;3.03;2.40;;;;;;;17.78;100.00;100407.06;20866070;28;20041;-74
2022/10/21 09:48:55;;;;;;;3.17;2.40;;;;;;;17.75;100.00;100404.69;20851854;28;20497;-73
2022/10/21 09:59:20;;;;;;;3.35;2.33;;;;;;;17.64;100.00;100394.06;20850843;28;20057;-73
2022/10/21 10:09:28;;;;;;;4.43;2.03;;;;;;;17.70;100.00;100420.44;20889077;28;20413;-73
2022/10/21 10:19:30;;;;;;;2.65;2.42;;;;;;;17.69;100.00;100429.50;20883199;28;20129;-73
2022/10/21 10:29:33;;;;;;;3.65;2.15;;;;;;;17.56;100.00;100408.28;20854281;28;20107;-74
2022/10/21 10:39:37;;;;;;;2.40;2.13;;;;;;;17.63;100.00;100409.38;20842325;28;20049;-73
2022/10/21 10:49:40;;;;;;;3.37;2.13;;;;;;;17.62;100.00;100414.91;20879155;28;20497;-73
2022/10/21 11:00:06;;;;;;;2.78;2.13;;;;;;;17.62;100.00;100425.66;20870880;28;20060;-73
2022/10/21 11:10:42;;;;;;;2.70;2.25;;;;;;;17.68;100.00;100417.03;20847439;28;20048;-73
2022/10/21 11:20:53;;;;;;;2.88;2.33;;;;;;;17.72;100.00;100421.13;20858590;28;20045;-74
2022/10/21 11:31:17;;;;;;;2.55;2.00;;;;;;;17.71;100.00;100421.25;20878044;28;20067;-74
2022/10/21 11:41:29;;;;;;;3.63;2.50;;;;;;;17.69;100.00;100421.44;20873647;28;20084;-74
2022/10/21 11:51:41;;;;;;;2.40;2.08;;;;;;;17.49;100.00;100381.09;20853513;28;20041;-74
2022/10/21 12:01:46;;;;;;;3.15;2.28;;;;;;;17.65;100.00;100403.84;20867694;28;20057;-75
2022/10/21 12:11:53;;;;;;;3.80;3.08;;;;;;;17.54;100.00;100381.50;20864883;28;20127;-74
2022/10/21 12:21:55;;;;;;;2.97;2.30;;;;;;;17.62;100.00;100394.25;20874808;28;20405;-74
2022/10/21 12:32:24;;;;;;;3.17;2.55;;;;;;;17.61;100.00;100399.75;20861993;28;20053;-74
2022/10/21 12:42:27;;;;;;;3.72;2.97;;;;;;;17.60;100.00;100384.59;20851293;28;20517;-74
2022/10/21 12:52:29;;;;;;;2.70;2.30;;;;;;;17.60;100.00;100387.28;20868487;28;20060;-74
2022/10/21 13:02:30;;;;;;;2.80;2.50;;;;;;;17.59;100.00;100377.50;20859656;28;20049;-75
2022/10/21 13:12:32;;;;;;;3.00;2.42;;;;;;;17.59;100.00;100373.00;20849283;28;20432;-75
2022/10/21 13:22:39;;;;;;;3.35;2.40;;;;;;;17.58;100.00;100374.00;20870120;28;20055;-74
2022/10/21 13:32:40;;;;;;;3.00;2.60;;;;;;;17.58;100.00;100375.81;20852483;28;20394;-74
2022/10/21 13:42:53;;;;;;;2.85;2.40;;;;;;;17.54;100.00;100372.59;20849667;28;20052;-74
2022/10/21 13:52:54;;;;;;;4.70;2.70;;;;;;;17.58;100.00;100384.75;20867482;28;20060;-74
2022/10/21 14:03:02;;;;;;;3.20;2.35;;;;;;;17.53;100.00;100374.41;20895626;28;20040;-74
2022/10/21 14:13:03;;;;;;;2.53;2.20;;;;;;;17.58;100.00;100379.38;20845183;28;20056;-74
2022/10/21 14:23:07;;;;;;;5.35;2.50;;;;;;;17.58;100.00;100383.91;20850247;28;20048;-74
2022/10/21 14:33:14;;;;;;;4.07;2.83;;;;;;;17.57;100.00;100390.28;20889707;28;20132;-74
2022/10/21 14:43:17;;;;;;;2.80;2.00;;;;;;;17.43;100.00;100376.31;20771684;28;20053;-74
2022/10/21 14:53:21;;;;;;;2.95;2.10;;;;;;;17.62;100.00;100412.22;20799053;28;20505;-74
2022/10/21 15:03:37;;;;;;;3.05;2.22;;;;;;;17.62;100.00;100406.84;20828164;28;20044;-75
2022/10/21 15:13:54;;;;;;;4.28;2.10;;;;;;;17.60;100.00;100415.06;20849101;28;20421;-74
2022/10/21 15:23:58;;;;;;;3.60;2.45;;;;;;;17.59;100.00;100408.00;20853633;28;20061;-74
2022/10/21 15:33:59;;;;;;;2.50;1.98;;;;;;;17.57;100.00;100401.03;20836789;28;20056;-74
2022/10/21 15:44:17;;;;;;;4.40;2.65;;;;;;;17.29;100.00;100368.69;20848209;28;20053;-74
2022/10/21 15:54:19;;;;;;;3.78;2.58;;;;;;;17.48;100.00;100414.38;20837573;28;20055;-74
2022/10/21 16:04:21;;;;;;;3.83;2.40;;;;;;;17.53;100.00;100428.25;20834642;28;20544;-74
2022/10/21 16:14:23;;;;;;;5.35;3.00;;;;;;;17.46;100.00;100419.06;20836031;28;20120;-75
2022/10/21 16:24:28;;;;;;;3.22;2.40;;;;;;;17.54;100.00;100438.03;20839337;28;20533;-74
2022/10/21 16:34:30;;;;;;;3.90;2.40;;;;;;;17.53;100.00;100436.31;20824596;28;20065;-75
2022/10/21 16:44:31;;;;;;;3.72;2.30;;;;;;;17.54;100.00;100448.78;20808567;28;20230;-75
2022/10/21 16:54:34;;;;;;;3.75;2.22;;;;;;;17.54;100.00;100453.34;20789961;28;20132;-74
2022/10/21 17:04:35;;;;;;;3.00;1.88;;;;;;;17.53;100.00;100446.25;20826874;28;20044;-73
2022/10/21 17:14:37;;;;;;;3.70;2.10;;;;;;;16.87;100.00;100340.28;20815106;28;20065;-74
2022/10/21 17:24:38;;;;;;;2.60;1.90;;;;;;;17.52;100.00;100458.00;20788898;28;20124;-74
2022/10/21 17:34:40;;;;;;;1.80;1.40;;;;;;;17.52;100.00;100468.78;20831942;28;20085;-74
2022/10/21 17:44:42;;;;;;;3.08;1.95;;;;;;;17.52;100.00;100483.06;20834285;28;20479;-75
2022/10/21 17:54:43;;;;;;;2.60;1.70;;;;;;;17.51;100.00;100502.91;20845299;28;20060;-75
2022/10/21 18:04:45;;;;;;;2.20;1.60;;;;;;;17.51;100.00;100518.22;20848412;28;20102;-78
2022/10/21 18:14:46;;;;;;;3.38;1.70;;;;;;;17.51;100.00;100518.22;20849597;28;20049;-74
2022/10/21 18:24:48;;;;;;;2.20;1.60;;;;;;;17.49;100.00;100515.66;20891693;28;20049;-74
2022/10/21 18:34:50;;;;;;;1.98;1.50;;;;;;;17.49;100.00;100521.03;20877361;28;20049;-74
2022/10/21 18:44:51;;;;;;;2.90;1.48;;;;;;;17.28;100.00;100469.25;20872506;28;20053;-74
2022/10/21 18:54:53;;;;;;;1.50;1.30;;;;;;;17.30;100.00;100478.84;20873121;28;20069;-74
2022/10/21 19:04:54;;;;;;;1.98;1.35;;;;;;;17.47;100.00;100514.94;20825851;28;20052;-74
2022/10/21 19:15:01;;;;;;;1.90;1.35;;;;;;;17.49;100.00;100520.22;20859395;28;20099;-74
2022/10/21 19:25:03;;;;;;;2.20;1.50;;;;;;;17.48;100.00;100519.34;20889947;28;20071;-75
2022/10/21 19:35:05;;;;;;;2.97;1.20;;;;;;;17.45;100.00;100518.75;20894289;28;20053;-75
2022/10/21 19:45:08;;;;;;;1.67;1.50;;;;;;;17.49;100.00;100525.59;20891641;28;20134;-74
2022/10/21 19:55:09;;;;;;;1.38;1.23;;;;;;;17.46;100.00;100525.88;20901884;28;20497;-74
2022/10/21 20:05:11;;;;;;;1.52;1.30;;;;;;;17.47;100.00;100544.56;20803567;28;20053;-74
2022/10/21 20:15:12;;;;;;;1.05;0.95;;;;;;;17.35;100.00;100513.41;20845810;28;20498;-75
2022/10/21 20:25:14;;;;;;;2.38;1.10;;;;;;;17.46;100.00;100537.47;20831201;28;20138;-76
2022/10/21 20:35:15;;;;;;;1.52;1.20;;;;;;;17.46;100.00;100537.47;20881992;28;20068;-74
2022/10/21 20:45:17;;;;;;;1.50;1.17;;;;;;;17.46;100.00;100528.56;20881518;28;20052;-74
2022/10/21 20:55:18;;;;;;;2.30;1.20;;;;;;;17.36;100.00;100510.56;20879776;28;20048;-75
2022/10/21 21:05:20;;;;;;;0.95;0.85;;;;;;;17.34;100.00;100511.72;20880310;28;20494;-74
2022/10/21 21:15:21;;;;;;;1.40;0.90;;;;;;;17.46;100.00;100539.34;20880635;28;20512;-75
2022/10/21 21:25:23;;;;;;;1.20;1.10;;;;;;;17.44;100.00;100544.84;20878462;28;20140;-75
2022/10/21 21:35:24;;;;;;;1.02;0.93;;;;;;;17.45;100.00;100551.06;20878912;28;20517;-75
2022/10/21 21:45:26;;;;;;;1.40;1.02;;;;;;;17.44;100.00;100547.53;20878719;28;20517;-74
2022/10/21 21:55:27;;;;;;;1.10;0.88;;;;;;;17.38;100.00;100545.41;20878124;28;20053;-74
2022/10/21 22:05:31;;;;;;;1.10;1.00;;;;;;;17.43;100.00;100551.22;20876712;28;20421;-77
2022/10/21 22:15:33;;;;;;;1.57;1.37;;;;;;;17.21;100.00;100515.50;20877224;28;20049;-75
2022/10/21 22:25:48;;;;;;;1.20;1.10;;;;;;;17.43;100.00;100559.28;20876788;28;20041;-75
2022/10/21 22:35:50;;;;;;;1.25;1.15;;;;;;;17.42;100.00;100560.28;20876378;28;20060;-75
2022/10/21 22:45:52;;;;;;;1.33;0.90;;;;;;;17.33;100.00;100561.13;20885899;28;20095;-75
2022/10/21 22:56:01;;;;;;;1.10;1.02;;;;;;;17.43;100.00;100553.03;20891531;28;20060;-75
2022/10/21 23:06:03;;;;;;;1.30;1.20;;;;;;;17.33;100.00;100545.81;20893835;28;20053;-74
2022/10/21 23:16:05;;;;;;;1.02;0.77;;;;;;;17.43;100.00;100553.03;20888401;28;20048;-75
2022/10/21 23:26:06;;;;;;;1.10;0.95;;;;;;;17.07;100.00;100508.72;20886767;28;20061;-75
2022/10/21 23:36:08;;;;;;;0.90;0.90;;;;;;;17.41;100.00;100569.34;20886285;28;20057;-75
2022/10/21 23:46:09;;;;;;;0.95;0.90;;;;;;;17.42;100.00;100557.59;20887779;28;20080;-74
2022/10/21 23:56:11;;;;;;;0.82;0.73;;;;;;;17.41;100.00;100563.97;20884566;28;20045;-75
